Observations for CULDROSE NAVY, United Kingdom (EGDR)

EGDR 112150Z 15005KT 5000 -RA FEW006 SCT012 OVC040 10/09 Q1016 GRN  
EGDR 112050Z 17010G20KT 4000 -RA FEW003 SCT004 BKN012 10/10 Q1016 YLO2 NOSIG
EGDR 112023Z 17012G23KT 2500 +RA FEW002 SCT003 OVC006 10/09 Q1016 YLO2 NOSIG
EGDR 111950Z 17012G23KT 3000 RA FEW003 SCT006 OVC008 10/09 Q1016 YLO1 BECMG 2500 RA SCT003 YLO2 
EGDR 111924Z 17014G24KT 6000 RA FEW006 OVC009 10/09 Q1016 GRN BECMG SCT006 YLO1 
EGDR 111850Z 16013G26KT 8000 -RA FEW009 SCT014 OVC022 11/08 Q1016 GRN BECMG SCT006 YLO1 
EGDR 111822Z 16012G22KT 9999 SCT012 BKN018 11/08 Q1017 GRN NOSIG
EGDR 111750Z 16012KT 9999 SCT012 OVC022 11/08 Q1017 GRN NOSIG   
EGDR 111650Z 16013G24KT 9999 SCT014 BKN022 11/08 Q1017 GRN NOSIG
EGDR 111620Z 16014G24KT 9999 SCT012 SCT018 BKN022 11/08 Q1018 GRN NOSIG 
EGDR 111550Z 16013G23KT 9999 SCT012 SCT018 BKN022 10/08 Q1018 GRN NOSIG 
EGDR 111515Z 16012KT 9999 SCT012 BKN018 10/08 Q1018 GRN NOSIG   
EGDR 111450Z 16013KT 9999 SCT014 SCT018 BKN026 10/08 Q1018 GRN NOSIG
EGDR 111350Z 17012KT 9999 FEW014 SCT018 BKN028 10/07 Q1019 WHT NOSIG
EGDR 111318Z 16012KT 9999 FEW014 SCT018 BKN026 10/07 Q1019 WHT NOSIG
EGDR 111250Z 15014G24KT 9999 FEW014 SCT022 BKN028 10/07 Q1020 WHT NOSIG 
EGDR 111221Z 16014G24KT 9999 FEW014 SCT022 BKN028 10/07 Q1020 WHT NOSIG 
EGDR 111150Z 16011KT 9999 SCT022 BKN028 10/06 Q1020 WHT NOSIG   
EGDR 111121Z 16011G21KT 9999 SCT022 BKN028 11/07 Q1021 WHT NOSIG
EGDR 111050Z 15013KT 9999 SCT022 BKN028 11/07 Q1021 WHT NOSIG   
EGDR 111019Z 16012KT 9999 FEW012 SCT020 BKN025 10/07 Q1021 WHT NOSIG
EGDR 110950Z 16010G21KT 9999 FEW012 SCT018 BKN028 10/07 Q1021 WHT NOSIG 
EGDR 110921Z 15013G23KT 9999 FEW010 SCT012 BKN025 10/08 Q1021 GRN NOSIG 
EGDR 110850Z 15011KT 9999 FEW010 SCT012 BKN025 10/08 Q1022 GRN NOSIG
EGDR 110823Z 15011G21KT 9999 SCT012 BKN025 10/08 Q1022 GRN  
EGDR 110750Z 16010KT 9999 FEW010 SCT012 BKN018 10/08 Q1022 REDZ GRN NOSIG   
EGDR 110721Z 15007KT 9999 -DZ FEW010 BKN018 10/08 Q1022 WHT 
EGDR 110650Z 16006KT 9999 FEW010 BKN018 10/07 Q1022 WHT 
EGDR 110624Z 16007KT 9999 FEW010 BKN018 10/08 Q1022 WHT 
EGDR 110550Z 17006KT 9999 FEW010 BKN015 10/08 Q1022 WHT 
EGDR 110450Z 16006KT 9999 FEW010 BKN015 10/08 Q1023 WHT 
EGDR 110350Z 17006KT 9999 FEW012 OVC020 10/07 Q1024 WHT 
EGDR 110250Z 15005KT 9999 FEW012 OVC020 10/08 Q1024 WHT 
EGDR 110150Z 15005KT 9999 FEW010 OVC020 10/08 Q1025 WHT 
EGDR 110050Z 16005KT 9999 FEW010 OVC022 10/08 Q1026 WHT 
EGDR 102350Z 18004KT 9999 FEW012 OVC022 10/08 Q1027 WHT 
EGDR 102250Z 20006KT 9999 FEW012 OVC020 10/08 Q1027 WHT TEMPO SCT012 GRN